sensor_id;sensor_type;location;lat;lon;timestamp;pressure;altitude;pressure_sealevel;temperature;humidity
62725;BME280;49026;52.600;4.694;2023-04-23T00:00:15;100731.75;;;6.11;77.46
62725;BME280;49026;52.600;4.694;2023-04-23T00:02:43;100729.19;;;6.09;78.21
62725;BME280;49026;52.600;4.694;2023-04-23T00:05:09;100724.84;;;6.10;78.33
62725;BME280;49026;52.600;4.694;2023-04-23T00:07:37;100724.84;;;6.10;78.20
62725;BME280;49026;52.600;4.694;2023-04-23T00:10:03;100717.91;;;6.09;79.47
62725;BME280;49026;52.600;4.694;2023-04-23T00:12:30;100714.31;;;6.13;79.83
62725;BME280;49026;52.600;4.694;2023-04-23T00:14:56;100715.16;;;6.15;79.63
62725;BME280;49026;52.600;4.694;2023-04-23T00:17:21;100710.75;;;6.17;79.59
62725;BME280;49026;52.600;4.694;2023-04-23T00:19:49;100702.09;;;6.15;78.84
62725;BME280;49026;52.600;4.694;2023-04-23T00:22:15;100709.19;;;6.10;80.18
62725;BME280;49026;52.600;4.694;2023-04-23T00:24:41;100710.16;;;6.04;80.72
62725;BME280;49026;52.600;4.694;2023-04-23T00:27:07;100700.75;;;5.99;80.36
62725;BME280;49026;52.600;4.694;2023-04-23T00:29:32;100701.66;;;5.94;79.69
62725;BME280;49026;52.600;4.694;2023-04-23T00:31:57;100705.28;;;5.89;79.15
62725;BME280;49026;52.600;4.694;2023-04-23T00:34:23;100700.97;;;5.86;78.96
62725;BME280;49026;52.600;4.694;2023-04-23T00:36:48;100688.91;;;5.82;80.16
62725;BME280;49026;52.600;4.694;2023-04-23T00:39:13;100690.69;;;5.82;81.41
62725;BME280;49026;52.600;4.694;2023-04-23T00:41:40;100693.25;;;5.83;82.50
62725;BME280;49026;52.600;4.694;2023-04-23T00:44:06;100688.03;;;5.83;82.66
62725;BME280;49026;52.600;4.694;2023-04-23T00:46:34;100688.84;;;5.85;82.45
62725;BME280;49026;52.600;4.694;2023-04-23T00:49:01;100674.91;;;5.86;81.54
62725;BME280;49026;52.600;4.694;2023-04-23T00:51:31;100681.84;;;5.87;82.49
62725;BME280;49026;52.600;4.694;2023-04-23T00:53:57;100681.00;;;5.87;82.59
62725;BME280;49026;52.600;4.694;2023-04-23T00:56:25;100681.00;;;5.87;84.07
62725;BME280;49026;52.600;4.694;2023-04-23T00:58:51;100682.69;;;5.88;83.29
62725;BME280;49026;52.600;4.694;2023-04-23T01:01:17;100673.13;;;5.88;83.60
62725;BME280;49026;52.600;4.694;2023-04-23T01:03:45;100674.03;;;5.87;82.81
62725;BME280;49026;52.600;4.694;2023-04-23T01:06:12;100683.63;;;5.85;81.66
62725;BME280;49026;52.600;4.694;2023-04-23T01:08:39;100679.38;;;5.81;80.58
62725;BME280;49026;52.600;4.694;2023-04-23T01:11:07;100677.75;;;5.77;79.80
62725;BME280;49026;52.600;4.694;2023-04-23T01:13:33;100669.97;;;5.74;79.99
62725;BME280;49026;52.600;4.694;2023-04-23T01:15:58;100665.63;;;5.74;79.09
62725;BME280;49026;52.600;4.694;2023-04-23T01:18:24;100659.50;;;5.77;79.15
62725;BME280;49026;52.600;4.694;2023-04-23T01:20:49;100649.00;;;5.80;79.28
62725;BME280;49026;52.600;4.694;2023-04-23T01:23:15;100646.22;;;5.86;78.79
62725;BME280;49026;52.600;4.694;2023-04-23T01:25:42;100647.00;;;5.91;79.28
62725;BME280;49026;52.600;4.694;2023-04-23T01:28:08;100641.59;;;5.99;79.41
62725;BME280;49026;52.600;4.694;2023-04-23T01:30:34;100635.41;;;6.05;81.40
62725;BME280;49026;52.600;4.694;2023-04-23T01:33:00;100626.50;;;6.12;80.01
62725;BME280;49026;52.600;4.694;2023-04-23T01:35:26;100621.19;;;6.17;80.92
62725;BME280;49026;52.600;4.694;2023-04-23T01:37:53;100626.25;;;6.21;79.79
62725;BME280;49026;52.600;4.694;2023-04-23T01:40:21;100625.31;;;6.25;80.38
62725;BME280;49026;52.600;4.694;2023-04-23T01:42:49;100629.63;;;6.26;80.29
62725;BME280;49026;52.600;4.694;2023-04-23T01:45:17;100626.16;;;6.26;80.82
62725;BME280;49026;52.600;4.694;2023-04-23T01:47:43;100623.53;;;6.26;80.75
62725;BME280;49026;52.600;4.694;2023-04-23T01:50:09;100627.00;;;6.26;79.91
62725;BME280;49026;52.600;4.694;2023-04-23T01:52:38;100623.53;;;6.26;79.56
62725;BME280;49026;52.600;4.694;2023-04-23T01:55:05;100621.78;;;6.26;79.85
62725;BME280;49026;52.600;4.694;2023-04-23T01:57:31;100625.16;;;6.32;81.34
62725;BME280;49026;52.600;4.694;2023-04-23T02:00:03;100615.50;;;6.35;81.36
62725;BME280;49026;52.600;4.694;2023-04-23T02:02:32;100614.47;;;6.41;81.22
62725;BME280;49026;52.600;4.694;2023-04-23T02:04:59;100611.75;;;6.45;81.72
62725;BME280;49026;52.600;4.694;2023-04-23T02:07:27;100602.91;;;6.49;82.59
62725;BME280;49026;52.600;4.694;2023-04-23T02:09:52;100598.53;;;6.52;82.86
62725;BME280;49026;52.600;4.694;2023-04-23T02:12:18;100599.31;;;6.55;83.78
62725;BME280;49026;52.600;4.694;2023-04-23T02:14:43;100607.06;;;6.58;85.17
62725;BME280;49026;52.600;4.694;2023-04-23T02:17:11;100600.91;;;6.59;85.17
62725;BME280;49026;52.600;4.694;2023-04-23T02:19:38;100594.03;;;6.57;85.52
62725;BME280;49026;52.600;4.694;2023-04-23T02:22:03;100598.47;;;6.53;85.30
62725;BME280;49026;52.600;4.694;2023-04-23T02:24:32;100598.53;;;6.52;83.84
62725;BME280;49026;52.600;4.694;2023-04-23T02:26:57;100590.75;;;6.50;84.88
62725;BME280;49026;52.600;4.694;2023-04-23T02:29:23;100592.41;;;6.53;85.31
62725;BME280;49026;52.600;4.694;2023-04-23T02:31:48;100591.38;;;6.58;86.94
62725;BME280;49026;52.600;4.694;2023-04-23T02:34:13;100594.63;;;6.66;88.83
62725;BME280;49026;52.600;4.694;2023-04-23T02:36:39;100593.56;;;6.74;88.05
62725;BME280;49026;52.600;4.694;2023-04-23T02:39:04;100588.97;;;6.82;89.56
62725;BME280;49026;52.600;4.694;2023-04-23T02:41:30;100588.03;;;6.84;88.53
62725;BME280;49026;52.600;4.694;2023-04-23T02:43:55;100588.81;;;6.86;87.91
62725;BME280;49026;52.600;4.694;2023-04-23T02:46:21;100584.44;;;6.89;87.75
62725;BME280;49026;52.600;4.694;2023-04-23T02:48:47;100579.94;;;6.94;87.63
62725;BME280;49026;52.600;4.694;2023-04-23T02:51:13;100577.19;;;6.98;89.15
62725;BME280;49026;52.600;4.694;2023-04-23T02:53:38;100583.94;;;7.05;87.85
62725;BME280;49026;52.600;4.694;2023-04-23T02:56:06;100586.25;;;7.15;87.17
62725;BME280;49026;52.600;4.694;2023-04-23T02:58:31;100585.16;;;7.23;85.21
62725;BME280;49026;52.600;4.694;2023-04-23T03:00:59;100584.00;;;7.32;85.04
62725;BME280;49026;52.600;4.694;2023-04-23T03:03:26;100588.94;;;7.41;84.58
62725;BME280;49026;52.600;4.694;2023-04-23T03:05:58;100592.16;;;7.50;83.58
62725;BME280;49026;52.600;4.694;2023-04-23T03:08:24;100590.25;;;7.55;83.30
62725;BME280;49026;52.600;4.694;2023-04-23T03:10:49;100597.06;;;7.60;85.02
62725;BME280;49026;52.600;4.694;2023-04-23T03:13:14;100597.84;;;7.64;85.17
62725;BME280;49026;52.600;4.694;2023-04-23T03:15:42;100595.13;;;7.67;86.22
62725;BME280;49026;52.600;4.694;2023-04-23T03:18:07;100586.34;;;7.68;85.80
62725;BME280;49026;52.600;4.694;2023-04-23T03:20:34;100584.66;;;7.67;85.13
62725;BME280;49026;52.600;4.694;2023-04-23T03:23:02;100584.66;;;7.67;85.62
62725;BME280;49026;52.600;4.694;2023-04-23T03:25:31;100579.53;;;7.64;85.57
62725;BME280;49026;52.600;4.694;2023-04-23T03:27:56;100577.00;;;7.61;85.96
62725;BME280;49026;52.600;4.694;2023-04-23T03:30:23;100579.72;;;7.58;84.83
62725;BME280;49026;52.600;4.694;2023-04-23T03:32:49;100583.34;;;7.54;83.70
62725;BME280;49026;52.600;4.694;2023-04-23T03:35:15;100565.22;;;7.48;87.23
62725;BME280;49026;52.600;4.694;2023-04-23T03:37:43;100574.88;;;7.46;85.91
62725;BME280;49026;52.600;4.694;2023-04-23T03:40:09;100566.34;;;7.40;84.91
62725;BME280;49026;52.600;4.694;2023-04-23T03:42:37;100564.69;;;7.36;84.49
62725;BME280;49026;52.600;4.694;2023-04-23T03:45:02;100564.00;;;7.31;83.94
62725;BME280;49026;52.600;4.694;2023-04-23T03:47:28;100561.47;;;7.28;83.40
62725;BME280;49026;52.600;4.694;2023-04-23T03:49:56;100564.25;;;7.23;83.25
62725;BME280;49026;52.600;4.694;2023-04-23T03:52:21;100566.91;;;7.22;84.01
62725;BME280;49026;52.600;4.694;2023-04-23T03:54:46;100563.41;;;7.21;83.43
62725;BME280;49026;52.600;4.694;2023-04-23T03:57:14;100563.41;;;7.21;84.84
62725;BME280;49026;52.600;4.694;2023-04-23T03:59:40;100559.88;;;7.24;85.40
62725;BME280;49026;52.600;4.694;2023-04-23T04:02:05;100554.63;;;7.24;84.63
62725;BME280;49026;52.600;4.694;2023-04-23T04:04:33;100549.41;;;7.24;86.38
62725;BME280;49026;52.600;4.694;2023-04-23T04:06:58;100551.94;;;7.27;86.26
62725;BME280;49026;52.600;4.694;2023-04-23T04:09:25;100550.16;;;7.28;86.22
62725;BME280;49026;52.600;4.694;2023-04-23T04:11:52;100553.59;;;7.30;85.61
62725;BME280;49026;52.600;4.694;2023-04-23T04:14:18;100545.69;;;7.31;84.92
62725;BME280;49026;52.600;4.694;2023-04-23T04:16:44;100550.88;;;7.33;84.21
62725;BME280;49026;52.600;4.694;2023-04-23T04:19:09;100545.59;;;7.34;83.40
62725;BME280;49026;52.600;4.694;2023-04-23T04:21:35;100552.47;;;7.38;83.03
62725;BME280;49026;52.600;4.694;2023-04-23T04:24:03;100555.81;;;7.42;82.81
62725;BME280;49026;52.600;4.694;2023-04-23T04:26:32;100553.97;;;7.46;81.52
62725;BME280;49026;52.600;4.694;2023-04-23T04:28:58;100563.41;;;7.50;82.50
62725;BME280;49026;52.600;4.694;2023-04-23T04:31:24;100560.69;;;7.53;81.99
62725;BME280;49026;52.600;4.694;2023-04-23T04:33:53;100565.88;;;7.54;80.96
62725;BME280;49026;52.600;4.694;2023-04-23T04:36:19;100566.63;;;7.58;80.87
62725;BME280;49026;52.600;4.694;2023-04-23T04:38:44;100563.13;;;7.59;81.00
62725;BME280;49026;52.600;4.694;2023-04-23T04:41:10;100556.09;;;7.61;80.49
62725;BME280;49026;52.600;4.694;2023-04-23T04:43:40;100555.09;;;7.65;80.82
62725;BME280;49026;52.600;4.694;2023-04-23T04:46:09;100556.78;;;7.66;80.95
62725;BME280;49026;52.600;4.694;2023-04-23T04:48:38;100553.19;;;7.70;80.49
62725;BME280;49026;52.600;4.694;2023-04-23T04:51:04;100557.44;;;7.73;80.84
62725;BME280;49026;52.600;4.694;2023-04-23T04:53:29;100547.72;;;7.76;80.64
62725;BME280;49026;52.600;4.694;2023-04-23T04:55:55;100551.19;;;7.78;82.82
62725;BME280;49026;52.600;4.694;2023-04-23T04:58:20;100550.19;;;7.81;82.99
62725;BME280;49026;52.600;4.694;2023-04-23T05:00:48;100544.88;;;7.84;82.08
62725;BME280;49026;52.600;4.694;2023-04-23T05:03:18;100552.56;;;7.89;82.04
62725;BME280;49026;52.600;4.694;2023-04-23T05:05:43;100542.84;;;7.92;82.53
62725;BME280;49026;52.600;4.694;2023-04-23T05:08:09;100554.06;;;7.96;81.92
62725;BME280;49026;52.600;4.694;2023-04-23T05:10:37;100545.19;;;8.00;81.55
62725;BME280;49026;52.600;4.694;2023-04-23T05:13:05;100545.97;;;8.04;81.52
62725;BME280;49026;52.600;4.694;2023-04-23T05:15:30;100542.38;;;8.06;81.89
62725;BME280;49026;52.600;4.694;2023-04-23T05:17:56;100540.50;;;8.10;81.11
62725;BME280;49026;52.600;4.694;2023-04-23T05:20:23;100543.06;;;8.11;82.18
62725;BME280;49026;52.600;4.694;2023-04-23T05:22:49;100539.56;;;8.12;82.42
62725;BME280;49026;52.600;4.694;2023-04-23T05:25:14;100539.50;;;8.14;81.46
62725;BME280;49026;52.600;4.694;2023-04-23T05:27:40;100537.72;;;8.14;82.60
62725;BME280;49026;52.600;4.694;2023-04-23T05:30:07;100542.13;;;8.14;82.72
62725;BME280;49026;52.600;4.694;2023-04-23T05:32:37;100547.31;;;8.15;81.69
62725;BME280;49026;52.600;4.694;2023-04-23T05:35:05;100548.19;;;8.14;82.92
62725;BME280;49026;52.600;4.694;2023-04-23T05:37:31;100549.91;;;8.15;82.75
62725;BME280;49026;52.600;4.694;2023-04-23T05:39:56;100559.41;;;8.18;84.01
62725;BME280;49026;52.600;4.694;2023-04-23T05:42:24;100559.25;;;8.23;82.56
62725;BME280;49026;52.600;4.694;2023-04-23T05:44:50;100555.69;;;8.25;82.62
62725;BME280;49026;52.600;4.694;2023-04-23T05:47:15;100553.06;;;8.25;83.33
62725;BME280;49026;52.600;4.694;2023-04-23T05:49:40;100546.06;;;8.26;82.97
62725;BME280;49026;52.600;4.694;2023-04-23T05:52:06;100548.63;;;8.27;82.48
62725;BME280;49026;52.600;4.694;2023-04-23T05:54:31;100544.25;;;8.28;82.69
62725;BME280;49026;52.600;4.694;2023-04-23T05:56:59;100540.63;;;8.32;82.25
62725;BME280;49026;52.600;4.694;2023-04-23T05:59:25;100538.00;;;8.32;83.38
62725;BME280;49026;52.600;4.694;2023-04-23T06:01:50;100538.00;;;8.32;82.76
62725;BME280;49026;52.600;4.694;2023-04-23T06:04:16;100537.19;;;8.30;83.09
62725;BME280;49026;52.600;4.694;2023-04-23T06:06:42;100537.19;;;8.30;82.55
62725;BME280;49026;52.600;4.694;2023-04-23T06:09:07;100538.84;;;8.32;82.15
62725;BME280;49026;52.600;4.694;2023-04-23T06:11:32;100532.41;;;8.43;84.28
62725;BME280;49026;52.600;4.694;2023-04-23T06:14:00;100537.03;;;8.60;83.82
62725;BME280;49026;52.600;4.694;2023-04-23T06:16:28;100532.75;;;8.81;83.28
62725;BME280;49026;52.600;4.694;2023-04-23T06:18:54;100543.38;;;9.00;83.00
62725;BME280;49026;52.600;4.694;2023-04-23T06:21:21;100536.59;;;9.18;83.74
62725;BME280;49026;52.600;4.694;2023-04-23T06:23:46;100533.28;;;9.35;84.56
62725;BME280;49026;52.600;4.694;2023-04-23T06:26:11;100534.44;;;9.50;84.56
62725;BME280;49026;52.600;4.694;2023-04-23T06:28:37;100524.97;;;9.68;85.32
62725;BME280;49026;52.600;4.694;2023-04-23T06:31:03;100529.63;;;9.81;85.68
62725;BME280;49026;52.600;4.694;2023-04-23T06:33:29;100536.84;;;9.97;86.17
62725;BME280;49026;52.600;4.694;2023-04-23T06:35:55;100531.94;;;10.10;86.02
62725;BME280;49026;52.600;4.694;2023-04-23T06:38:20;100535.63;;;10.26;86.28
62725;BME280;49026;52.600;4.694;2023-04-23T06:40:47;100531.56;;;10.40;86.52
62725;BME280;49026;52.600;4.694;2023-04-23T06:43:12;100533.44;;;10.56;86.20
62725;BME280;49026;52.600;4.694;2023-04-23T06:45:38;100535.16;;;10.77;86.03
62725;BME280;49026;52.600;4.694;2023-04-23T06:48:04;100528.28;;;10.93;85.81
62725;BME280;49026;52.600;4.694;2023-04-23T06:50:32;100536.22;;;11.10;85.71
62725;BME280;49026;52.600;4.694;2023-04-23T06:52:57;100534.34;;;11.31;85.67
62725;BME280;49026;52.600;4.694;2023-04-23T06:55:22;100523.69;;;11.52;85.36
62725;BME280;49026;52.600;4.694;2023-04-23T06:57:54;100521.03;;;11.71;85.66
62725;BME280;49026;52.600;4.694;2023-04-23T07:00:21;100521.09;;;11.87;85.65
62725;BME280;49026;52.600;4.694;2023-04-23T07:02:46;100527.47;;;12.00;85.57
62725;BME280;49026;52.600;4.694;2023-04-23T07:05:12;100517.31;;;12.10;85.64
62725;BME280;49026;52.600;4.694;2023-04-23T07:07:40;100525.53;;;12.21;85.44
62725;BME280;49026;52.600;4.694;2023-04-23T07:10:09;100522.16;;;12.35;86.34
62725;BME280;49026;52.600;4.694;2023-04-23T07:12:38;100516.41;;;12.45;85.22
62725;BME280;49026;52.600;4.694;2023-04-23T07:15:04;100520.19;;;12.56;85.67
62725;BME280;49026;52.600;4.694;2023-04-23T07:17:32;100505.22;;;12.73;84.29
62725;BME280;49026;52.600;4.694;2023-04-23T07:19:58;100509.84;;;12.85;84.95
62725;BME280;49026;52.600;4.694;2023-04-23T07:22:24;100519.53;;;13.01;85.68
62725;BME280;49026;52.600;4.694;2023-04-23T07:24:52;100509.56;;;13.06;85.06
62725;BME280;49026;52.600;4.694;2023-04-23T07:27:18;100506.44;;;13.15;86.21
62725;BME280;49026;52.600;4.694;2023-04-23T07:29:43;100507.44;;;13.28;85.57
62725;BME280;49026;52.600;4.694;2023-04-23T07:32:09;100517.16;;;13.44;87.35
62725;BME280;49026;52.600;4.694;2023-04-23T07:34:34;100498.75;;;13.58;84.89
62725;BME280;49026;52.600;4.694;2023-04-23T07:37:02;100498.59;;;13.76;86.10
62725;BME280;49026;52.600;4.694;2023-04-23T07:39:28;100494.50;;;14.00;87.89
62725;BME280;49026;52.600;4.694;2023-04-23T07:41:53;100493.19;;;14.22;88.13
62725;BME280;49026;52.600;4.694;2023-04-23T07:44:18;100497.72;;;14.34;88.14
62725;BME280;49026;52.600;4.694;2023-04-23T07:46:44;100510.84;;;14.36;88.69
62725;BME280;49026;52.600;4.694;2023-04-23T07:49:09;100502.00;;;14.37;88.73
62725;BME280;49026;52.600;4.694;2023-04-23T07:51:34;100499.03;;;14.41;88.86
62725;BME280;49026;52.600;4.694;2023-04-23T07:54:00;100490.19;;;14.42;87.90
62725;BME280;49026;52.600;4.694;2023-04-23T07:56:25;100486.59;;;14.43;87.70
62725;BME280;49026;52.600;4.694;2023-04-23T07:58:50;100490.56;;;14.51;88.01
62725;BME280;49026;52.600;4.694;2023-04-23T08:01:18;100502.28;;;14.61;88.33
62725;BME280;49026;52.600;4.694;2023-04-23T08:03:43;100500.38;;;14.77;88.22
62725;BME280;49026;52.600;4.694;2023-04-23T08:06:11;100498.47;;;14.94;88.14
62725;BME280;49026;52.600;4.694;2023-04-23T08:08:37;100493.75;;;14.85;84.31
62725;BME280;49026;52.600;4.694;2023-04-23T08:11:04;100479.78;;;14.68;85.14
62725;BME280;49026;52.600;4.694;2023-04-23T08:13:29;100483.09;;;14.57;85.55
62725;BME280;49026;52.600;4.694;2023-04-23T08:15:55;100478.56;;;14.59;86.36
62725;BME280;49026;52.600;4.694;2023-04-23T08:18:20;100465.25;;;14.75;86.51
62725;BME280;49026;52.600;4.694;2023-04-23T08:20:45;100480.78;;;14.94;86.18
62725;BME280;49026;52.600;4.694;2023-04-23T08:23:10;100472.41;;;15.15;86.40
62725;BME280;49026;52.600;4.694;2023-04-23T08:25:36;100477.75;;;15.28;86.99
62725;BME280;49026;52.600;4.694;2023-04-23T08:28:01;100481.03;;;15.31;85.67
62725;BME280;49026;52.600;4.694;2023-04-23T08:30:27;100480.75;;;15.36;86.23
62725;BME280;49026;52.600;4.694;2023-04-23T08:32:53;100475.19;;;15.26;85.01
62725;BME280;49026;52.600;4.694;2023-04-23T08:35:21;100475.19;;;15.26;85.88
62725;BME280;49026;52.600;4.694;2023-04-23T08:37:49;100483.38;;;15.36;85.70
62725;BME280;49026;52.600;4.694;2023-04-23T08:40:15;100475.94;;;15.55;85.51
62725;BME280;49026;52.600;4.694;2023-04-23T08:42:48;100469.97;;;15.79;86.73
62725;BME280;49026;52.600;4.694;2023-04-23T08:45:15;100473.66;;;15.89;83.54
62725;BME280;49026;52.600;4.694;2023-04-23T08:47:41;100480.47;;;16.06;84.93
62725;BME280;49026;52.600;4.694;2023-04-23T08:50:11;100472.63;;;16.30;85.85
62725;BME280;49026;52.600;4.694;2023-04-23T08:52:39;100474.72;;;16.51;86.32
62725;BME280;49026;52.600;4.694;2023-04-23T08:55:06;100484.00;;;16.70;86.48
62725;BME280;49026;52.600;4.694;2023-04-23T08:57:36;100474.75;;;16.75;85.24
62725;BME280;49026;52.600;4.694;2023-04-23T09:00:05;100485.41;;;16.62;84.97
62725;BME280;49026;52.600;4.694;2023-04-23T09:02:33;100480.78;;;16.15;83.81
62725;BME280;49026;52.600;4.694;2023-04-23T09:05:02;100479.31;;;15.57;81.90
62725;BME280;49026;52.600;4.694;2023-04-23T09:07:28;100484.63;;;15.03;81.69
62725;BME280;49026;52.600;4.694;2023-04-23T09:09:53;100487.53;;;14.57;80.92
62725;BME280;49026;52.600;4.694;2023-04-23T09:12:19;100483.66;;;14.19;80.81
62725;BME280;49026;52.600;4.694;2023-04-23T09:14:48;100472.50;;;14.00;79.92
62725;BME280;49026;52.600;4.694;2023-04-23T09:17:17;100473.09;;;14.19;81.60
62725;BME280;49026;52.600;4.694;2023-04-23T09:19:44;100469.63;;;14.62;81.85
62725;BME280;49026;52.600;4.694;2023-04-23T09:22:10;100473.84;;;15.06;82.11
62725;BME280;49026;52.600;4.694;2023-04-23T09:24:35;100468.38;;;15.49;82.27
62725;BME280;49026;52.600;4.694;2023-04-23T09:27:01;100469.75;;;15.82;82.42
62725;BME280;49026;52.600;4.694;2023-04-23T09:29:32;100464.66;;;16.05;82.57
62725;BME280;49026;52.600;4.694;2023-04-23T09:32:06;100466.75;;;16.25;82.53
62725;BME280;49026;52.600;4.694;2023-04-23T09:34:36;100456.78;;;16.42;82.36
62725;BME280;49026;52.600;4.694;2023-04-23T09:37:05;100464.66;;;16.18;80.16
62725;BME280;49026;52.600;4.694;2023-04-23T09:39:35;100460.94;;;16.33;81.39
62725;BME280;49026;52.600;4.694;2023-04-23T09:42:04;100460.88;;;16.59;81.25
62725;BME280;49026;52.600;4.694;2023-04-23T09:44:33;100468.16;;;16.44;80.52
62725;BME280;49026;52.600;4.694;2023-04-23T09:47:06;100469.13;;;16.17;79.65
62725;BME280;49026;52.600;4.694;2023-04-23T09:49:52;100462.00;;;15.92;78.93
62725;BME280;49026;52.600;4.694;2023-04-23T09:52:19;100463.47;;;15.83;79.53
62725;BME280;49026;52.600;4.694;2023-04-23T09:54:46;100459.84;;;15.71;78.36
62725;BME280;49026;52.600;4.694;2023-04-23T09:57:12;100464.69;;;15.52;77.97
62725;BME280;49026;52.600;4.694;2023-04-23T09:59:40;100456.63;;;15.53;78.12
62725;BME280;49026;52.600;4.694;2023-04-23T10:02:06;100452.63;;;15.73;77.57
62725;BME280;49026;52.600;4.694;2023-04-23T10:04:32;100446.38;;;15.74;77.58
62725;BME280;49026;52.600;4.694;2023-04-23T10:07:00;100458.28;;;15.82;78.23
62725;BME280;49026;52.600;4.694;2023-04-23T10:09:27;100453.31;;;16.03;76.41
62725;BME280;49026;52.600;4.694;2023-04-23T10:11:56;100442.84;;;16.14;77.45
62725;BME280;49026;52.600;4.694;2023-04-23T10:14:22;100453.22;;;16.17;77.89
62725;BME280;49026;52.600;4.694;2023-04-23T10:17:06;100443.03;;;16.74;78.89
62725;BME280;49026;52.600;4.694;2023-04-23T10:19:35;100448.44;;;17.33;79.66
62725;BME280;49026;52.600;4.694;2023-04-23T10:22:03;100440.19;;;17.96;79.92
62725;BME280;49026;52.600;4.694;2023-04-23T10:24:33;100439.56;;;18.49;80.19
62725;BME280;49026;52.600;4.694;2023-04-23T10:27:02;100438.34;;;18.64;74.34
62725;BME280;49026;52.600;4.694;2023-04-23T10:29:37;100435.31;;;18.69;75.11
62725;BME280;49026;52.600;4.694;2023-04-23T10:32:07;100436.41;;;18.66;76.22
62725;BME280;49026;52.600;4.694;2023-04-23T10:34:32;100431.94;;;18.67;77.58
62725;BME280;49026;52.600;4.694;2023-04-23T10:36:58;100428.81;;;18.39;75.11
62725;BME280;49026;52.600;4.694;2023-04-23T10:39:26;100418.44;;;18.13;70.23
62725;BME280;49026;52.600;4.694;2023-04-23T10:41:53;100403.38;;;17.78;69.91
62725;BME280;49026;52.600;4.694;2023-04-23T10:44:19;100410.19;;;17.47;70.63
62725;BME280;49026;52.600;4.694;2023-04-23T10:46:55;100410.53;;;17.31;74.02
62725;BME280;49026;52.600;4.694;2023-04-23T10:49:23;100407.94;;;17.18;74.78
62725;BME280;49026;52.600;4.694;2023-04-23T10:51:48;100401.50;;;17.10;74.98
62725;BME280;49026;52.600;4.694;2023-04-23T10:54:30;100395.94;;;17.01;74.78
62725;BME280;49026;52.600;4.694;2023-04-23T10:57:09;100397.31;;;17.18;74.70
62725;BME280;49026;52.600;4.694;2023-04-23T10:59:37;100394.19;;;17.60;74.73
62725;BME280;49026;52.600;4.694;2023-04-23T11:02:11;100387.81;;;17.85;71.31
62725;BME280;49026;52.600;4.694;2023-04-23T11:04:53;100384.84;;;18.01;69.70
62725;BME280;49026;52.600;4.694;2023-04-23T11:07:25;100386.00;;;17.86;67.74
62725;BME280;49026;52.600;4.694;2023-04-23T11:09:50;100383.81;;;17.68;67.32
62725;BME280;49026;52.600;4.694;2023-04-23T11:14:53;100374.53;;;17.85;67.54
62725;BME280;49026;52.600;4.694;2023-04-23T11:20:18;100364.59;;;18.55;65.30
62725;BME280;49026;52.600;4.694;2023-04-23T11:22:46;100368.97;;;18.45;65.65
62725;BME280;49026;52.600;4.694;2023-04-23T11:27:45;100368.31;;;18.64;65.42
62725;BME280;49026;52.600;4.694;2023-04-23T11:30:15;100366.44;;;18.87;65.86
62725;BME280;49026;52.600;4.694;2023-04-23T11:32:46;100366.75;;;19.05;65.60
62725;BME280;49026;52.600;4.694;2023-04-23T11:35:17;100368.66;;;19.35;67.02
62725;BME280;49026;52.600;4.694;2023-04-23T11:37:44;100364.88;;;19.59;65.39
62725;BME280;49026;52.600;4.694;2023-04-23T11:40:14;100359.84;;;19.66;66.68
62725;BME280;49026;52.600;4.694;2023-04-23T11:42:51;100352.56;;;19.68;66.50
62725;BME280;49026;52.600;4.694;2023-04-23T11:45:22;100349.63;;;19.40;64.28
62725;BME280;49026;52.600;4.694;2023-04-23T11:47:53;100342.28;;;19.11;63.82
62725;BME280;49026;52.600;4.694;2023-04-23T11:50:27;100348.28;;;18.92;65.65
62725;BME280;49026;52.600;4.694;2023-04-23T11:52:53;100348.72;;;18.65;64.18
62725;BME280;49026;52.600;4.694;2023-04-23T11:55:19;100336.91;;;18.46;62.70
62725;BME280;49026;52.600;4.694;2023-04-23T11:57:46;100337.66;;;18.26;63.17
62725;BME280;49026;52.600;4.694;2023-04-23T12:00:23;100329.25;;;18.09;62.45
62725;BME280;49026;52.600;4.694;2023-04-23T12:02:57;100337.34;;;18.08;63.75
62725;BME280;49026;52.600;4.694;2023-04-23T12:08:11;100330.31;;;18.18;63.92
62725;BME280;49026;52.600;4.694;2023-04-23T12:10:54;100330.91;;;18.22;57.55
62725;BME280;49026;52.600;4.694;2023-04-23T12:13:24;100323.06;;;18.20;63.86
62725;BME280;49026;52.600;4.694;2023-04-23T12:15:56;100325.13;;;18.05;61.66
62725;BME280;49026;52.600;4.694;2023-04-23T12:18:37;100322.47;;;17.94;62.46
62725;BME280;49026;52.600;4.694;2023-04-23T12:21:11;100310.50;;;17.77;62.66
62725;BME280;49026;52.600;4.694;2023-04-23T12:23:40;100310.47;;;17.66;63.03
62725;BME280;49026;52.600;4.694;2023-04-23T12:26:10;100306.16;;;17.53;64.33
62725;BME280;49026;52.600;4.694;2023-04-23T12:31:30;100310.13;;;17.48;64.57
62725;BME280;49026;52.600;4.694;2023-04-23T12:34:03;100313.75;;;17.47;67.45
62725;BME280;49026;52.600;4.694;2023-04-23T12:36:29;100299.38;;;17.38;67.76
62725;BME280;49026;52.600;4.694;2023-04-23T12:39:22;100305.03;;;17.33;68.08
62725;BME280;49026;52.600;4.694;2023-04-23T12:41:52;100300.94;;;17.29;68.07
62725;BME280;49026;52.600;4.694;2023-04-23T12:44:18;100307.56;;;17.35;68.87
62725;BME280;49026;52.600;4.694;2023-04-23T12:46:44;100298.00;;;17.32;68.32
62725;BME280;49026;52.600;4.694;2023-04-23T12:49:09;100286.78;;;17.29;68.72
62725;BME280;49026;52.600;4.694;2023-04-23T12:51:34;100296.84;;;17.36;68.55
62725;BME280;49026;52.600;4.694;2023-04-23T12:54:00;100292.25;;;17.38;68.09
62725;BME280;49026;52.600;4.694;2023-04-23T12:56:25;100285.38;;;17.36;68.40
62725;BME280;49026;52.600;4.694;2023-04-23T12:58:50;100286.19;;;17.25;68.67
62725;BME280;49026;52.600;4.694;2023-04-23T13:01:16;100279.94;;;17.26;68.93
62725;BME280;49026;52.600;4.694;2023-04-23T13:03:41;100274.50;;;17.50;69.10
62725;BME280;49026;52.600;4.694;2023-04-23T13:06:06;100273.28;;;17.77;69.17
62725;BME280;49026;52.600;4.694;2023-04-23T13:08:32;100277.75;;;17.99;68.75